createdAt,value
2022-09-28T00:02:49.760Z,90.04
2022-09-28T00:04:50.663Z,90.42
2022-09-28T00:06:52.225Z,90.5
2022-09-28T00:08:53.425Z,90.91
2022-09-28T00:12:56.081Z,91.23
2022-09-28T00:14:57.521Z,91.71
2022-09-28T00:16:58.867Z,91.68
2022-09-28T00:18:59.931Z,91.53
2022-09-28T00:23:02.409Z,91.8
2022-09-28T00:25:04.362Z,91.65
2022-09-28T00:27:05.478Z,91.65
2022-09-28T00:29:07.245Z,91.54
2022-09-28T00:31:08.822Z,91.63
2022-09-28T00:33:09.965Z,91.53
2022-09-28T00:35:11.093Z,91.63
2022-09-28T00:37:12.213Z,91.34
2022-09-28T00:39:13.274Z,91.4
2022-09-28T00:41:15.044Z,91.19
2022-09-28T00:43:16.991Z,90.93
2022-09-28T00:45:18.597Z,91.14
2022-09-28T00:47:20.266Z,91.41
2022-09-28T00:49:21.604Z,91.64
2022-09-28T00:51:23.141Z,91.7
2022-09-28T00:53:24.164Z,91.93
2022-09-28T00:55:25.701Z,91.51
2022-09-28T00:57:27.064Z,91.33
2022-09-28T00:59:28.423Z,91.68
2022-09-28T01:05:33.208Z,91.07
2022-09-28T01:07:34.586Z,90.98
2022-09-28T01:09:35.927Z,91.1
2022-09-28T01:11:37.670Z,91.22
2022-09-28T01:13:39.295Z,91.45
2022-09-28T01:15:41.105Z,91.23
2022-09-28T01:17:42.768Z,91.63
2022-09-28T01:20:28.098Z,91.79
2022-09-28T01:22:29.397Z,91.91
2022-09-28T01:24:30.902Z,92.41
2022-09-28T01:26:31.934Z,92.37
2022-09-28T01:28:33.183Z,93.17
2022-09-28T01:30:34.680Z,93.04
2022-09-28T01:32:36.473Z,93.28
2022-09-28T01:34:38.386Z,93.31
2022-09-28T01:36:40.213Z,93.51
2022-09-28T01:38:41.728Z,93.44
2022-09-28T01:42:44.740Z,93.91
2022-09-28T01:44:46.259Z,94.09
2022-09-28T01:46:47.351Z,94.38
2022-09-28T01:48:48.323Z,94.59
2022-09-28T01:50:49.997Z,94.58
2022-09-28T01:52:51.096Z,94.52
2022-09-28T01:54:52.707Z,94.78
2022-09-28T01:56:54.578Z,94.96
2022-09-28T01:58:55.908Z,94.77
2022-09-28T02:00:57.418Z,94.98
2022-09-28T02:02:58.426Z,95.13
2022-09-28T02:05:00.341Z,95.34
2022-09-28T02:07:01.576Z,95.53
2022-09-28T02:09:03.109Z,95.61
2022-09-28T02:11:04.868Z,95.74
2022-09-28T02:15:07.862Z,95.82
2022-09-28T02:17:09.419Z,95.86
2022-09-28T02:19:11.285Z,95.87
2022-09-28T02:21:12.986Z,95.95
2022-09-28T02:25:16.328Z,96
2022-09-28T02:27:17.887Z,95.88
2022-09-28T02:29:19.580Z,95.87
2022-09-28T02:31:21.032Z,95.91
2022-09-28T02:33:22.876Z,95.93
2022-09-28T02:35:24.534Z,95.96
2022-09-28T02:37:25.859Z,95.97
2022-09-28T02:39:26.978Z,95.99
2022-09-28T02:41:28.739Z,96.03
2022-09-28T02:43:30.004Z,96.11
2022-09-28T02:45:31.669Z,96.19
2022-09-28T02:47:32.927Z,96.35
2022-09-28T02:49:34.486Z,96.41
2022-09-28T02:51:36.172Z,96.38
2022-09-28T02:53:37.952Z,96.36
2022-09-28T02:57:40.229Z,96.08
2022-09-28T02:59:41.276Z,96.1
2022-09-28T03:01:42.615Z,96.07
2022-09-28T03:03:44.192Z,95.98
2022-09-28T03:07:46.677Z,95.6
2022-09-28T03:09:48.473Z,95.7
2022-09-28T03:13:51.389Z,95.84
2022-09-28T03:15:52.400Z,95.87
2022-09-28T03:17:53.847Z,95.85
2022-09-28T03:19:55.558Z,95.91
2022-09-28T03:23:58.920Z,96.07
2022-09-28T03:26:00.229Z,96.1
2022-09-28T03:28:01.585Z,96.13
2022-09-28T03:30:02.811Z,96.13
2022-09-28T03:32:04.126Z,96.02
2022-09-28T03:34:05.620Z,96.08
2022-09-28T03:36:07.301Z,96.12
2022-09-28T03:38:08.784Z,96.15
2022-09-28T03:40:10.425Z,96.19
2022-09-28T03:42:11.528Z,96.2
2022-09-28T03:44:13.321Z,96.28
2022-09-28T03:46:14.901Z,96.37
2022-09-28T03:48:16.711Z,96.43
2022-09-28T03:50:17.122Z,96.49
2022-09-28T03:52:18.499Z,96.49
2022-09-28T03:54:19.574Z,96.55
2022-09-28T03:56:20.857Z,96.55
2022-09-28T03:58:21.843Z,96.62
2022-09-28T04:00:23.395Z,96.8
2022-09-28T04:02:25.298Z,96.82
2022-09-28T04:06:28.927Z,96.7
2022-09-28T04:08:30.483Z,96.47
2022-09-28T04:10:32.345Z,96.5
2022-09-28T04:12:33.627Z,96.57
2022-09-28T04:14:34.860Z,96.65
2022-09-28T04:16:35.923Z,96.7
2022-09-28T04:18:37.610Z,96.73
2022-09-28T04:20:38.962Z,96.79
2022-09-28T04:22:39.892Z,96.82
2022-09-28T04:24:41.559Z,96.87
2022-09-28T04:26:43.167Z,96.9
2022-09-28T04:28:44.231Z,96.96
2022-09-28T04:30:46.020Z,97.01
2022-09-28T04:32:47.398Z,96.94
2022-09-28T04:34:49.033Z,96.78
2022-09-28T04:38:53.387Z,96.53
2022-09-28T04:40:52.715Z,96.44
2022-09-28T04:42:53.849Z,96.37
2022-09-28T04:44:55.613Z,96.27
2022-09-28T04:48:59.055Z,96.21
2022-09-28T04:51:00.445Z,96.28
2022-09-28T04:53:01.636Z,96.33
2022-09-28T04:55:03.230Z,96.34
2022-09-28T04:57:04.412Z,96.33
2022-09-28T04:59:06.254Z,96.25
2022-09-28T05:01:08.085Z,96.21
2022-09-28T05:03:09.987Z,96.25
2022-09-28T05:05:11.882Z,96.2
2022-09-28T05:07:13.210Z,96.17
2022-09-28T05:09:15.194Z,95.88
2022-09-28T05:11:16.937Z,95.91
2022-09-28T05:13:18.760Z,96.05
2022-09-28T05:15:20.478Z,96.1
2022-09-28T05:17:22.299Z,96.18
2022-09-28T05:19:24.047Z,96.28
2022-09-28T05:21:25.449Z,96.33
2022-09-28T05:23:27.356Z,96.47
2022-09-28T05:25:28.564Z,96.3
2022-09-28T05:27:29.747Z,96.16
2022-09-28T05:31:33.470Z,96.07
2022-09-28T05:33:34.480Z,96.14
2022-09-28T05:35:36.436Z,96.22
2022-09-28T05:37:38.018Z,96.15
2022-09-28T05:39:39.687Z,96.15
2022-09-28T05:41:41.350Z,96.1
2022-09-28T05:43:42.377Z,96.1
2022-09-28T05:45:43.964Z,96.19
2022-09-28T05:47:45.388Z,96.2
2022-09-28T05:49:46.621Z,96.24
2022-09-28T05:51:47.589Z,96.3
2022-09-28T05:53:48.782Z,96.36
2022-09-28T05:55:50.573Z,96.14
2022-09-28T05:57:52.304Z,96.11
2022-09-28T05:59:53.654Z,96.1
2022-09-28T06:03:56.880Z,96.17
2022-09-28T06:05:58.249Z,95.8
2022-09-28T06:07:59.884Z,95.68
2022-09-28T06:10:01.041Z,95.56
2022-09-28T06:12:02.208Z,95.39
2022-09-28T06:14:03.163Z,95.29
2022-09-28T06:16:05.094Z,95.32
2022-09-28T06:18:06.898Z,95.44
2022-09-28T06:20:08.244Z,95.57
2022-09-28T06:22:10.129Z,95.32
2022-09-28T06:24:11.984Z,95.47
2022-09-28T06:26:13.030Z,95.32
2022-09-28T06:28:14.574Z,95.32
2022-09-28T06:30:16.356Z,95.45
2022-09-28T06:32:17.435Z,95.33
2022-09-28T06:34:19.392Z,94.96
2022-09-28T06:36:20.548Z,94.79
2022-09-28T06:38:22.376Z,94.32
2022-09-28T06:40:23.353Z,94.2
2022-09-28T06:42:24.698Z,93.92
2022-09-28T06:46:27.893Z,93.77
2022-09-28T06:48:29.731Z,93.77
2022-09-28T06:50:30.872Z,93.44
2022-09-28T06:52:32.748Z,93.43
2022-09-28T06:54:34.525Z,93.51
2022-09-28T06:56:35.630Z,93.84
2022-09-28T06:58:37.416Z,94.08
2022-09-28T07:00:39.208Z,94.17
2022-09-28T07:02:40.880Z,94.25
2022-09-28T07:04:41.895Z,94.14
2022-09-28T07:06:43.018Z,93.11
2022-09-28T07:08:46.008Z,92.86
2022-09-28T07:10:46.061Z,93.41
2022-09-28T07:12:47.833Z,93.2
2022-09-28T07:14:49.866Z,93.6
2022-09-28T07:18:53.521Z,93.72
2022-09-28T07:20:54.831Z,92.11
2022-09-28T07:22:56.018Z,92.71
2022-09-28T07:24:56.831Z,92.57
2022-09-28T07:29:00.004Z,93.3
2022-09-28T07:31:00.983Z,93.47
2022-09-28T07:35:02.942Z,92.8
2022-09-28T07:37:04.263Z,92.17
2022-09-28T07:39:05.881Z,92.53
2022-09-28T07:41:07.051Z,91.35
2022-09-28T07:45:10.151Z,92.25
2022-09-28T07:47:11.496Z,92.61
2022-09-28T07:49:20.781Z,92.25
2022-09-28T07:51:14.002Z,92.51
2022-09-28T07:53:15.553Z,91.92
2022-09-28T07:55:16.684Z,92.27
2022-09-28T07:57:17.645Z,92.45
2022-09-28T07:59:19.539Z,92.61
2022-09-28T08:01:20.610Z,92.62
2022-09-28T08:03:21.796Z,92.08
2022-09-28T08:04:05.621Z,92.28
2022-09-28T08:06:06.987Z,90.43
2022-09-28T08:08:08.855Z,90.81
2022-09-28T08:10:10.676Z,90.8
2022-09-28T08:12:11.911Z,90.32
2022-09-28T08:14:13.697Z,89.41
2022-09-28T08:16:16.066Z,90.43
2022-09-28T08:18:17.361Z,87.54
2022-09-28T08:22:20.196Z,87.32
2022-09-28T08:24:21.593Z,85.8
2022-09-28T08:26:23.418Z,84.78
2022-09-28T08:28:24.671Z,83.74
2022-09-28T08:30:26.002Z,84.02
2022-09-28T08:32:27.400Z,82.67
2022-09-28T08:34:28.844Z,82.4
2022-09-28T08:36:30.107Z,80.58
2022-09-28T08:38:31.025Z,80.14
2022-09-28T08:40:32.635Z,80.88
2022-09-28T08:42:33.549Z,80.5
2022-09-28T08:44:34.679Z,80.71
2022-09-28T08:46:36.005Z,80.72
2022-09-28T08:48:37.402Z,80.77
2022-09-28T08:50:39.156Z,78.66
2022-09-28T08:54:41.662Z,75.69
2022-09-28T08:56:43.092Z,76.98
2022-09-28T08:58:44.092Z,76.86
2022-09-28T09:00:45.675Z,77.89
2022-09-28T09:02:46.988Z,78.15
2022-09-28T09:04:48.589Z,78
2022-09-28T09:06:49.894Z,74.3
2022-09-28T09:08:51.056Z,74.83
2022-09-28T09:10:52.381Z,76.94
2022-09-28T09:12:54.240Z,77.85
2022-09-28T09:14:55.679Z,78.22
2022-09-28T09:16:59.843Z,78.18
2022-09-28T09:18:57.883Z,78.75
2022-09-28T09:20:59.631Z,75.36
2022-09-28T09:23:01.128Z,76.48
2022-09-28T09:25:02.813Z,74.7
2022-09-28T09:27:04.120Z,72.69
2022-09-28T09:29:05.137Z,73.57
2022-09-28T09:31:06.741Z,74.21
2022-09-28T09:33:08.107Z,73.81
2022-09-28T09:35:09.593Z,76.01
2022-09-28T09:37:10.877Z,76.77
2022-09-28T09:39:12.016Z,77.92
2022-09-28T09:43:14.799Z,77.64
2022-09-28T09:45:16.284Z,77.72
2022-09-28T09:47:17.743Z,77.52
2022-09-28T09:49:19.136Z,74.83
2022-09-28T09:51:20.546Z,74.79
2022-09-28T09:53:22.153Z,75.39
2022-09-28T09:55:27.505Z,75.89
2022-09-28T09:57:24.729Z,75.73
2022-09-28T09:59:26.256Z,74.67
2022-09-28T10:03:29.377Z,71.41
2022-09-28T10:05:31.103Z,70.69
2022-09-28T10:07:32.171Z,70.53
2022-09-28T10:09:33.891Z,68.78
2022-09-28T10:11:35.287Z,67.96
2022-09-28T10:13:36.877Z,68.89
2022-09-28T10:15:37.876Z,70.21
2022-09-28T10:17:39.187Z,67.08
2022-09-28T10:19:40.514Z,65.48
2022-09-28T10:21:41.386Z,66.8
2022-09-28T10:23:42.741Z,66.75
2022-09-28T10:25:44.451Z,65.18
2022-09-28T10:27:45.497Z,63.98
2022-09-28T10:29:46.500Z,64.54
2022-09-28T10:31:47.610Z,65.99
2022-09-28T10:33:48.515Z,66.51
2022-09-28T10:35:49.729Z,66.36
2022-09-28T10:37:51.039Z,65.76
2022-09-28T10:39:52.842Z,66.66
2022-09-28T10:41:54.312Z,66.98
2022-09-28T10:45:57.274Z,67.37
2022-09-28T10:47:58.808Z,63.9
2022-09-28T10:50:00.161Z,65.99
2022-09-28T10:52:01.436Z,65.17
2022-09-28T10:54:02.408Z,64.41
2022-09-28T10:56:03.943Z,65.98
2022-09-28T10:58:05.799Z,64.89
2022-09-28T11:00:08.322Z,66.42
2022-09-28T11:02:09.281Z,66.32
2022-09-28T11:04:10.450Z,64.41
2022-09-28T11:06:12.304Z,62.92
2022-09-28T11:08:13.755Z,64.47
2022-09-28T11:10:15.590Z,66.41
2022-09-28T11:12:16.484Z,65.57
2022-09-28T11:14:17.812Z,65.38
2022-09-28T11:18:20.126Z,63.02
2022-09-28T11:20:26.958Z,63.89
2022-09-28T11:22:23.583Z,63.88
2022-09-28T11:24:25.374Z,61.05
2022-09-28T11:28:27.669Z,63.54
2022-09-28T11:30:29.055Z,60.02
2022-09-28T11:32:30.162Z,65.33
2022-09-28T11:34:48.060Z,61.51
2022-09-28T11:36:32.425Z,62.79
2022-09-28T11:38:33.866Z,61.89
2022-09-28T11:40:35.306Z,62.65
2022-09-28T11:42:36.178Z,61.28
2022-09-28T11:44:38.338Z,62.5
2022-09-28T11:46:39.386Z,61.26
2022-09-28T11:48:40.583Z,61.11
2022-09-28T11:50:42.275Z,61.61
2022-09-28T11:52:43.365Z,61.66
2022-09-28T11:54:44.837Z,62.04
2022-09-28T11:56:46.122Z,62.77
2022-09-28T11:58:47.402Z,64.25
2022-09-28T12:00:48.423Z,64.5
2022-09-28T12:02:50.147Z,66.24
2022-09-28T12:04:51.563Z,66.81
2022-09-28T12:06:52.488Z,66.29
2022-09-28T12:08:53.445Z,68.63
2022-09-28T12:10:55.212Z,70.69
2022-09-28T12:12:56.400Z,68.67
2022-09-28T12:17:05.233Z,65.2
2022-09-28T12:21:04.355Z,65.19
2022-09-28T12:23:02.918Z,64.66
2022-09-28T12:27:05.513Z,64.53
2022-09-28T12:29:06.696Z,62.7
2022-09-28T12:31:08.561Z,62.15
2022-09-28T12:33:09.397Z,63.39
2022-09-28T12:35:10.818Z,62.82
2022-09-28T12:37:11.995Z,65.58
2022-09-28T12:39:31.324Z,62.49
2022-09-28T12:41:13.895Z,60.29
2022-09-28T12:43:15.468Z,61.36
2022-09-28T12:45:16.346Z,59.4
2022-09-28T12:47:17.402Z,60.27
2022-09-28T12:51:19.924Z,61.05
2022-09-28T12:53:21.463Z,62.99
2022-09-28T12:55:22.980Z,62.46
2022-09-28T12:57:24.159Z,59.97
2022-09-28T12:59:25.053Z,60.83
2022-09-28T13:01:26.710Z,60.19
2022-09-28T13:03:28.380Z,60.79
2022-09-28T13:05:29.350Z,61.66
2022-09-28T13:09:31.375Z,61.09
2022-09-28T13:11:32.584Z,63.63
2022-09-28T13:13:34.593Z,63.46
2022-09-28T13:15:35.880Z,62.09
2022-09-28T13:17:37.408Z,62.45
2022-09-28T13:19:39.278Z,61.15
2022-09-28T13:21:40.160Z,61.08
2022-09-28T13:23:41.611Z,61.25
2022-09-28T13:25:43.018Z,60.86
2022-09-28T13:27:43.989Z,59.39
2022-09-28T13:29:45.675Z,58.4
2022-09-28T13:31:47.012Z,59.2
2022-09-28T13:33:47.959Z,60.1
2022-09-28T13:35:49.035Z,58.19
2022-09-28T13:37:50.402Z,59.55
2022-09-28T13:39:52.287Z,59.17
2022-09-28T13:41:53.596Z,56.48
2022-09-28T13:43:55.151Z,57.68
2022-09-28T13:45:56.333Z,58.5
2022-09-28T13:47:57.214Z,58.79
2022-09-28T13:49:58.855Z,63.45
2022-09-28T13:51:59.909Z,61.63
2022-09-28T13:54:01.311Z,62.37
2022-09-28T13:58:04.147Z,61.52
2022-09-28T14:00:05.038Z,62.82
2022-09-28T14:02:07.367Z,64.97
2022-09-28T14:04:08.226Z,66
2022-09-28T14:08:10.460Z,68.02
2022-09-28T14:10:12.318Z,68.53
2022-09-28T14:12:13.274Z,69.16
2022-09-28T14:14:14.852Z,70.03
2022-09-28T14:16:15.997Z,68.53
2022-09-28T14:18:16.912Z,69.45
2022-09-28T14:20:18.136Z,69.42
2022-09-28T14:22:19.066Z,68.49
2022-09-28T14:24:20.948Z,65.05
2022-09-28T14:26:22.631Z,64.45
2022-09-28T14:28:24.464Z,60.63
2022-09-28T14:30:25.535Z,61.55
2022-09-28T14:32:26.832Z,59.65
2022-09-28T14:34:28.456Z,59.67
2022-09-28T14:36:29.723Z,58.3
2022-09-28T14:38:30.704Z,58.35
2022-09-28T14:40:32.456Z,56.98
2022-09-28T14:42:33.786Z,56.48
2022-09-28T14:44:35.563Z,58.34
2022-09-28T14:46:36.978Z,61.01
2022-09-28T14:48:38.730Z,62.43
2022-09-28T14:49:40.616Z,63.43
2022-09-28T14:51:42.040Z,63.84
2022-09-28T14:53:42.919Z,63.25
2022-09-28T14:55:43.811Z,63.19
2022-09-28T14:57:44.941Z,64.22
2022-09-28T15:01:48.427Z,60.57
2022-09-28T15:03:49.395Z,61.03
2022-09-28T15:05:50.608Z,60.24
2022-09-28T15:07:51.978Z,60.81
2022-09-28T15:11:54.817Z,59.17
2022-09-28T15:13:56.602Z,59.07
2022-09-28T15:15:58.065Z,59.45
2022-09-28T15:17:59.839Z,58.36
2022-09-28T15:20:01.398Z,56.91
2022-09-28T15:22:02.269Z,55.66
2022-09-28T15:24:04.102Z,55.45
2022-09-28T15:26:05.387Z,57.75
2022-09-28T15:28:07.179Z,57.7
2022-09-28T15:30:08.626Z,57.91
2022-09-28T15:32:09.547Z,59.67
2022-09-28T15:34:10.919Z,58.84
2022-09-28T15:36:12.613Z,56.8
2022-09-28T15:38:14.126Z,55.1
2022-09-28T15:40:15.011Z,56.34
2022-09-28T15:44:17.610Z,57.4
2022-09-28T15:46:18.625Z,55.65
2022-09-28T15:48:20.244Z,54.91
2022-09-28T15:50:21.526Z,56.77
2022-09-28T15:54:23.699Z,60.8
2022-09-28T15:56:25.153Z,59.79
2022-09-28T15:58:26.587Z,59.18
2022-09-28T16:00:27.550Z,60.45
2022-09-28T16:02:29.134Z,59.95
2022-09-28T16:04:30.687Z,60.9
2022-09-28T16:06:31.787Z,60.81
2022-09-28T16:10:34.549Z,62.99
2022-09-28T16:12:35.586Z,64.28
2022-09-28T16:14:36.678Z,64.24
2022-09-28T16:16:40.294Z,63.9
2022-09-28T16:18:39.587Z,65.47
2022-09-28T16:20:40.618Z,66.37
2022-09-28T16:22:41.887Z,66.94
2022-09-28T16:24:43.376Z,67.14
2022-09-28T16:26:44.414Z,67.13
2022-09-28T16:28:46.185Z,67.47
2022-09-28T16:30:47.893Z,68.25
2022-09-28T16:32:49.019Z,67.5
2022-09-28T16:34:50.095Z,68.08
2022-09-28T16:36:51.873Z,69.12
2022-09-28T16:38:53.652Z,68.96
2022-09-28T16:42:57.031Z,69.41
2022-09-28T16:44:58.085Z,70.54
2022-09-28T16:46:59.690Z,70.9
2022-09-28T16:49:01.497Z,72.24
2022-09-28T16:53:04.603Z,74.15
2022-09-28T16:55:17.802Z,74.06
2022-09-28T16:57:07.694Z,76.49
2022-09-28T16:59:11.921Z,76
2022-09-28T17:01:09.903Z,77.01
2022-09-28T17:03:10.856Z,77.63
2022-09-28T17:05:12.157Z,77.78
2022-09-28T17:07:13.686Z,78.95
2022-09-28T17:09:14.796Z,79.09
2022-09-28T17:11:20.366Z,79.63
2022-09-28T17:13:18.173Z,80.78
2022-09-28T17:15:19.321Z,81.36
2022-09-28T17:17:20.873Z,82.05
2022-09-28T17:19:22.670Z,83.02
2022-09-28T17:21:24.536Z,83.38
2022-09-28T17:23:26.152Z,83.54
2022-09-28T17:25:27.833Z,83.89
2022-09-28T17:27:29.089Z,84.89
2022-09-28T17:29:30.992Z,85.72
2022-09-28T17:31:32.506Z,86.26
2022-09-28T17:35:39.476Z,87.67
2022-09-28T17:37:37.746Z,87.98
2022-09-28T17:39:39.530Z,87.46
2022-09-28T17:41:41.393Z,87.6
2022-09-28T17:43:42.710Z,87.75
2022-09-28T17:45:44.441Z,87.57
2022-09-28T17:47:45.566Z,87.95
2022-09-28T17:49:46.795Z,88.34
2022-09-28T17:51:48.249Z,88.49
2022-09-28T17:53:49.772Z,88.6
2022-09-28T17:55:51.713Z,88.88
2022-09-28T17:57:52.929Z,89.3
2022-09-28T17:59:54.198Z,88.26
2022-09-28T18:01:58.435Z,88.61
2022-09-28T18:03:57.157Z,88.88
2022-09-28T18:05:58.351Z,88.87
2022-09-28T18:07:59.676Z,89
2022-09-28T18:10:01.037Z,89.53
2022-09-28T18:12:02.331Z,89.71
2022-09-28T18:14:06.781Z,89.89
2022-09-28T18:18:06.424Z,90.11
2022-09-28T18:20:07.601Z,90.51
2022-09-28T18:22:09.463Z,90.79
2022-09-28T18:24:10.558Z,90.69
2022-09-28T18:26:12.171Z,91.29
2022-09-28T18:28:14.075Z,91.77
2022-09-28T18:30:15.756Z,91.53
2022-09-28T18:32:17.696Z,91.39
2022-09-28T18:34:18.976Z,91.5
2022-09-28T18:36:19.911Z,92.28
2022-09-28T18:38:21.589Z,92.12
2022-09-28T18:40:22.617Z,92.71
2022-09-28T18:42:24.523Z,92.72
2022-09-28T18:44:25.782Z,92.95
2022-09-28T18:46:27.491Z,92.85
2022-09-28T18:50:30.719Z,92.54
2022-09-28T18:52:32.106Z,92.65
2022-09-28T18:54:33.913Z,92.9
2022-09-28T18:56:35.273Z,93.58
2022-09-28T19:00:38.740Z,93.97
2022-09-28T19:02:40.207Z,94.49
2022-09-28T19:04:41.488Z,94.39
2022-09-28T19:06:43.154Z,94.31
2022-09-28T19:08:45.092Z,93.9
2022-09-28T19:10:46.773Z,94.01
2022-09-28T19:12:48.360Z,93.86
2022-09-28T19:14:49.672Z,94.68
2022-09-28T19:16:50.921Z,94.67
2022-09-28T19:18:51.958Z,94.84
2022-09-28T19:20:53.495Z,94.84
2022-09-28T19:22:55.345Z,94.86
2022-09-28T19:24:56.485Z,94.64
2022-09-28T19:26:57.871Z,94.85
2022-09-28T19:28:59.012Z,95.01
2022-09-28T19:33:02.017Z,95.73
2022-09-28T19:35:03.309Z,95.62
2022-09-28T19:37:05.323Z,95.67
2022-09-28T19:39:06.335Z,95.61
2022-09-28T19:43:08.390Z,95.45
2022-09-28T19:45:09.386Z,95.55
2022-09-28T19:47:10.567Z,95.77
2022-09-28T19:49:11.822Z,95.82
2022-09-28T19:51:13.099Z,95.89
2022-09-28T19:53:14.985Z,96.13
2022-09-28T19:55:16.393Z,96.33
2022-09-28T19:59:18.919Z,96.22
2022-09-28T20:01:20.192Z,96.26
2022-09-28T20:03:22.002Z,96.3
2022-09-28T20:05:23.299Z,96.32
2022-09-28T20:07:24.762Z,96.37
2022-09-28T20:09:26.449Z,96.4
2022-09-28T20:11:28.166Z,96.42
2022-09-28T20:13:29.237Z,96.34
2022-09-28T20:15:31.162Z,96.62
2022-09-28T20:17:32.693Z,97.09
2022-09-28T20:19:34.424Z,97.01
2022-09-28T20:21:36.399Z,97.05
2022-09-28T20:23:37.592Z,97.03
2022-09-28T20:25:38.701Z,96.99
2022-09-28T20:27:39.964Z,96.91
2022-09-28T20:29:41.258Z,96.86
2022-09-28T20:31:43.197Z,97.01
2022-09-28T20:33:44.622Z,97.13
2022-09-28T20:35:45.846Z,97.12
2022-09-28T20:37:47.782Z,97.18
2022-09-28T20:41:51.380Z,97.29
2022-09-28T20:43:53.347Z,97.28
2022-09-28T20:45:55.359Z,97.41
2022-09-28T20:47:56.440Z,97.48
2022-09-28T20:49:57.381Z,97.51
2022-09-28T20:51:58.713Z,97.51
2022-09-28T20:53:59.940Z,97.52
2022-09-28T20:56:01.341Z,97.55
2022-09-28T20:58:02.403Z,97.53
2022-09-28T21:00:03.412Z,97.41
2022-09-28T21:02:04.622Z,97.42
2022-09-28T21:04:05.994Z,97.5
2022-09-28T21:06:11.503Z,97.62
2022-09-28T21:08:08.407Z,97.63
2022-09-28T21:10:10.168Z,97.62
2022-09-28T21:12:11.944Z,97.65
2022-09-28T21:14:13.309Z,97.71
2022-09-28T21:16:14.722Z,97.74
2022-09-28T21:18:16.528Z,97.71
2022-09-28T21:22:19.963Z,97.8
2022-09-28T21:24:21.897Z,97.79
2022-09-28T21:26:23.011Z,97.76
2022-09-28T21:28:24.209Z,97.76
2022-09-28T21:30:26.000Z,97.72
2022-09-28T21:32:27.068Z,97.7
2022-09-28T21:34:28.046Z,97.71
2022-09-28T21:35:11.930Z,97.66
2022-09-28T21:37:13.744Z,97.66
2022-09-28T21:39:15.133Z,97.65
2022-09-28T21:41:16.776Z,97.63
2022-09-28T21:43:17.873Z,97.6
2022-09-28T21:45:19.434Z,97.57
2022-09-28T21:47:20.934Z,97.42
2022-09-28T21:49:21.943Z,97.32
2022-09-28T21:51:23.712Z,97.41
2022-09-28T21:53:24.801Z,97.55
2022-09-28T21:55:26.613Z,97.58
2022-09-28T21:57:28.232Z,97.57
2022-09-28T22:01:30.478Z,97.32
2022-09-28T22:03:32.381Z,97.22
2022-09-28T22:05:33.970Z,97.16
2022-09-28T22:07:35.179Z,97.41
2022-09-28T22:09:36.328Z,97.07
2022-09-28T22:11:37.534Z,96.44
2022-09-28T22:13:39.370Z,96.1
2022-09-28T22:17:42.643Z,95.68
2022-09-28T22:19:44.122Z,95.78
2022-09-28T22:21:45.852Z,95.95
2022-09-28T22:23:47.091Z,96.14
2022-09-28T22:25:48.551Z,96.15
2022-09-28T22:27:50.479Z,96.25
2022-09-28T22:29:52.129Z,96.21
2022-09-28T22:31:53.803Z,96.34
2022-09-28T22:33:55.222Z,95.92
2022-09-28T22:35:57.151Z,96.02
2022-09-28T22:37:58.326Z,96.06
2022-09-28T22:39:59.748Z,96.41
2022-09-28T22:42:01.046Z,96.25
2022-09-28T22:44:02.817Z,96.18
2022-09-28T22:46:04.473Z,96.36
2022-09-28T22:50:06.788Z,96.56
2022-09-28T22:52:08.018Z,96.67
2022-09-28T22:54:09.143Z,96.78
2022-09-28T22:56:13.548Z,96.68
2022-09-28T22:58:12.238Z,96.67
2022-09-28T23:00:13.693Z,96.8
2022-09-28T23:02:14.864Z,97.17
2022-09-28T23:04:15.873Z,97.01
2022-09-28T23:06:17.382Z,97.12
2022-09-28T23:08:18.420Z,96.95
2022-09-28T23:10:19.508Z,96.83
2022-09-28T23:12:20.652Z,96.73
2022-09-28T23:14:22.347Z,96.74
2022-09-28T23:16:23.696Z,96.18
2022-09-28T23:18:25.273Z,95.91
2022-09-28T23:20:26.594Z,95.72
2022-09-28T23:22:28.151Z,95.59
2022-09-28T23:24:29.774Z,95.8
2022-09-28T23:26:31.454Z,96.03
2022-09-28T23:28:33.296Z,95.84
2022-09-28T23:30:34.438Z,95.35
2022-09-28T23:32:35.460Z,94.84
2022-09-28T23:34:37.189Z,94.01
2022-09-28T23:36:38.532Z,93.55
2022-09-28T23:38:40.452Z,93.13
2022-09-28T23:42:43.229Z,93.04
2022-09-28T23:44:44.980Z,93.63
2022-09-28T23:46:46.309Z,94.35
2022-09-28T23:48:48.089Z,94.35
2022-09-28T23:50:49.840Z,94.79
2022-09-28T23:52:50.951Z,94.81
2022-09-28T23:54:52.218Z,94.9
2022-09-28T23:58:54.541Z,95.78
